createdAt,value
2023-03-31T00:01:11.235Z,1.02
2023-03-31T00:03:43.964Z,1.10
2023-03-31T00:06:18.151Z,1.10
2023-03-31T00:08:51.676Z,1.10
2023-03-31T00:11:23.014Z,1.00
2023-03-31T00:13:51.689Z,1.05
2023-03-31T00:16:20.796Z,1.20
2023-03-31T00:18:51.166Z,1.10
2023-03-31T00:21:29.788Z,1.20
2023-03-31T00:24:00.200Z,1.20
2023-03-31T00:26:31.047Z,1.00
2023-03-31T00:29:01.049Z,1.20
2023-03-31T00:31:29.668Z,1.00
2023-03-31T00:33:58.777Z,1.00
2023-03-31T00:36:28.510Z,0.98
2023-03-31T00:38:59.954Z,1.33
2023-03-31T00:41:31.299Z,1.13
2023-03-31T00:44:08.335Z,1.20
2023-03-31T00:46:41.659Z,1.00
2023-03-31T00:49:16.606Z,1.13
2023-03-31T00:51:46.099Z,1.30
2023-03-31T00:54:15.444Z,1.20
2023-03-31T00:56:49.247Z,1.10
2023-03-31T00:59:18.877Z,1.15
2023-03-31T01:01:52.810Z,1.25
2023-03-31T01:04:22.814Z,1.25
2023-03-31T01:07:00.881Z,1.23
2023-03-31T01:09:34.998Z,1.33
2023-03-31T01:12:08.648Z,1.10
2023-03-31T01:14:37.565Z,1.13
2023-03-31T01:17:09.893Z,1.00
2023-03-31T01:19:56.072Z,1.00
2023-03-31T01:23:09.593Z,1.30
2023-03-31T01:26:09.325Z,1.10
2023-03-31T01:28:46.890Z,1.10
2023-03-31T01:31:51.392Z,1.10
2023-03-31T01:35:03.981Z,1.13
2023-03-31T01:38:05.559Z,1.00
2023-03-31T01:40:49.592Z,1.08
2023-03-31T01:43:24.443Z,1.17
2023-03-31T01:46:01.552Z,1.40
2023-03-31T01:48:42.063Z,1.10
2023-03-31T01:51:16.907Z,1.23
2023-03-31T01:53:52.349Z,1.00
2023-03-31T01:56:25.931Z,1.10
2023-03-31T01:58:58.045Z,1.30
2023-03-31T02:01:32.194Z,1.20
2023-03-31T02:04:07.232Z,1.00
2023-03-31T02:06:40.926Z,1.35
2023-03-31T02:09:13.431Z,1.10
2023-03-31T02:11:44.493Z,1.20
2023-03-31T02:14:19.620Z,1.27
2023-03-31T02:16:51.198Z,1.50
2023-03-31T02:19:23.413Z,1.20
2023-03-31T02:21:52.347Z,1.25
2023-03-31T02:24:24.233Z,1.50
2023-03-31T02:26:59.126Z,1.23
2023-03-31T02:29:28.006Z,1.55
2023-03-31T02:32:02.564Z,1.45
2023-03-31T02:34:31.309Z,1.48
2023-03-31T02:37:00.342Z,1.33
2023-03-31T02:39:34.437Z,1.55
2023-03-31T02:42:07.512Z,1.70
2023-03-31T02:44:36.813Z,1.30
2023-03-31T02:47:08.578Z,1.30
2023-03-31T02:49:41.481Z,1.40
2023-03-31T02:52:52.833Z,1.15
2023-03-31T02:55:44.780Z,1.20
2023-03-31T02:58:36.470Z,1.30
2023-03-31T03:01:16.685Z,1.10
2023-03-31T03:03:57.899Z,1.30
2023-03-31T03:06:40.487Z,1.20
2023-03-31T03:09:33.397Z,1.30
2023-03-31T03:12:09.855Z,1.60
2023-03-31T03:14:48.425Z,1.10
2023-03-31T03:17:22.333Z,1.38
2023-03-31T03:19:54.556Z,1.50
2023-03-31T03:22:23.698Z,1.30
2023-03-31T03:24:52.616Z,1.40
2023-03-31T03:27:22.438Z,1.23
2023-03-31T03:29:52.680Z,1.17
2023-03-31T03:32:21.228Z,1.10
2023-03-31T03:34:49.710Z,1.30
2023-03-31T03:37:18.228Z,1.40
2023-03-31T03:39:46.799Z,1.30
2023-03-31T03:42:15.714Z,1.20
2023-03-31T03:44:44.232Z,1.33
2023-03-31T03:47:14.550Z,1.60
2023-03-31T03:49:42.991Z,1.40
2023-03-31T03:52:11.583Z,1.40
2023-03-31T03:54:40.121Z,1.33
2023-03-31T03:57:08.564Z,1.38
2023-03-31T03:59:37.041Z,1.50
2023-03-31T04:02:05.630Z,1.70
2023-03-31T04:04:35.556Z,1.33
2023-03-31T04:07:03.982Z,1.33
2023-03-31T04:09:32.439Z,1.30
2023-03-31T04:12:01.058Z,1.63
2023-03-31T04:14:29.542Z,1.67
2023-03-31T04:16:58.615Z,1.70
2023-03-31T04:19:27.604Z,2.05
2023-03-31T04:22:02.718Z,1.70
2023-03-31T04:24:33.035Z,2.10
2023-03-31T04:27:03.036Z,1.55
2023-03-31T04:29:33.765Z,1.70
2023-03-31T04:32:02.896Z,1.60
2023-03-31T04:34:36.040Z,1.77
2023-03-31T04:37:06.110Z,1.50
2023-03-31T04:39:34.539Z,1.60
2023-03-31T04:42:03.233Z,1.67
2023-03-31T04:44:31.806Z,1.63
2023-03-31T04:47:03.138Z,1.40
2023-03-31T04:49:33.619Z,1.52
2023-03-31T04:52:02.225Z,1.60
2023-03-31T04:54:32.056Z,1.58
2023-03-31T04:57:00.579Z,1.50
2023-03-31T04:59:28.990Z,1.52
2023-03-31T05:01:57.404Z,1.58
2023-03-31T05:04:26.510Z,1.40
2023-03-31T05:06:55.328Z,1.30
2023-03-31T05:09:23.919Z,1.70
2023-03-31T05:11:53.844Z,1.55
2023-03-31T05:14:22.271Z,1.50
2023-03-31T05:16:50.812Z,1.20
2023-03-31T05:19:19.385Z,1.30
2023-03-31T05:21:47.864Z,1.30
2023-03-31T05:24:16.449Z,1.25
2023-03-31T05:26:48.443Z,1.30
2023-03-31T05:29:18.327Z,1.20
2023-03-31T05:31:47.075Z,1.55
2023-03-31T05:34:16.298Z,1.27
2023-03-31T05:36:44.788Z,0.98
2023-03-31T05:39:13.229Z,1.30
2023-03-31T05:41:41.983Z,1.20
2023-03-31T05:44:10.483Z,1.30
2023-03-31T05:46:41.393Z,1.20
2023-03-31T05:49:11.347Z,1.35
2023-03-31T05:51:39.767Z,1.20
2023-03-31T05:54:08.274Z,1.17
2023-03-31T05:56:36.843Z,1.20
2023-03-31T05:59:05.498Z,1.20
2023-03-31T06:01:34.389Z,1.17
2023-03-31T06:04:04.347Z,1.40
2023-03-31T06:06:34.328Z,1.30
2023-03-31T06:09:04.305Z,1.30
2023-03-31T06:11:33.155Z,1.20
2023-03-31T06:14:01.578Z,1.10
2023-03-31T06:16:30.135Z,1.33
2023-03-31T06:18:58.664Z,1.20
2023-03-31T06:21:28.411Z,1.25
2023-03-31T06:23:58.366Z,1.20
2023-03-31T06:26:27.535Z,1.10
2023-03-31T06:28:56.039Z,1.15
2023-03-31T06:31:26.074Z,1.10
2023-03-31T06:33:54.823Z,1.27
2023-03-31T06:36:23.844Z,1.33
2023-03-31T06:38:53.771Z,1.00
2023-03-31T06:41:22.729Z,1.02
2023-03-31T06:43:51.576Z,1.15
2023-03-31T06:46:20.094Z,1.20
2023-03-31T06:48:48.687Z,1.27
2023-03-31T06:51:17.597Z,1.30
2023-03-31T06:53:46.038Z,1.40
2023-03-31T06:56:15.873Z,1.30
2023-03-31T06:58:44.336Z,1.40
2023-03-31T07:01:12.836Z,1.20
2023-03-31T07:03:41.382Z,1.30
2023-03-31T07:06:09.875Z,1.30
2023-03-31T07:08:38.344Z,1.40
2023-03-31T07:11:07.080Z,1.40
2023-03-31T07:13:37.091Z,1.52
2023-03-31T07:16:07.416Z,1.40
2023-03-31T07:18:36.663Z,1.27
2023-03-31T07:21:09.783Z,1.58
2023-03-31T07:23:39.021Z,1.30
2023-03-31T07:26:07.880Z,1.10
2023-03-31T07:28:37.754Z,1.30
2023-03-31T07:31:12.332Z,1.40
2023-03-31T07:36:13.357Z,1.10
2023-03-31T07:38:43.566Z,1.20
2023-03-31T07:41:13.130Z,1.10
2023-03-31T07:43:43.318Z,1.10
2023-03-31T07:46:20.150Z,1.10
2023-03-31T07:48:49.464Z,1.00
2023-03-31T07:51:20.970Z,0.90
2023-03-31T07:53:52.260Z,1.20
2023-03-31T07:56:24.615Z,1.00
2023-03-31T07:58:57.356Z,1.00
2023-03-31T08:01:29.492Z,1.15
2023-03-31T08:03:59.104Z,0.98
2023-03-31T08:06:29.082Z,1.00
2023-03-31T08:08:58.094Z,1.00
2023-03-31T08:11:27.204Z,1.20
2023-03-31T08:13:57.069Z,1.10
2023-03-31T08:16:25.970Z,1.20
2023-03-31T08:18:54.961Z,1.10
2023-03-31T08:21:24.622Z,1.10
2023-03-31T08:23:55.226Z,1.00
2023-03-31T08:26:24.418Z,1.00
2023-03-31T08:28:53.953Z,1.10
2023-03-31T08:31:27.438Z,1.00
2023-03-31T08:33:57.275Z,1.27
2023-03-31T08:36:26.154Z,1.20
2023-03-31T08:38:54.623Z,1.00
2023-03-31T08:41:38.174Z,1.13
2023-03-31T08:44:13.615Z,1.20
2023-03-31T08:46:44.371Z,1.20
2023-03-31T08:49:17.790Z,1.20
2023-03-31T08:51:50.029Z,1.13
2023-03-31T08:54:24.119Z,1.15
2023-03-31T08:56:53.936Z,1.08
2023-03-31T08:59:28.779Z,1.00
2023-03-31T09:02:05.959Z,1.10
2023-03-31T09:05:11.678Z,1.10
2023-03-31T09:10:26.244Z,1.10
2023-03-31T09:13:02.297Z,1.40
2023-03-31T09:15:38.042Z,1.40
2023-03-31T09:18:15.476Z,1.20
2023-03-31T09:20:49.498Z,1.30
2023-03-31T09:23:27.344Z,1.25
2023-03-31T09:25:57.818Z,1.20
2023-03-31T09:28:32.095Z,1.20
2023-03-31T09:31:01.034Z,1.27
2023-03-31T09:33:32.912Z,1.27
2023-03-31T09:36:01.948Z,1.45
2023-03-31T09:38:31.297Z,1.20
2023-03-31T09:41:01.378Z,1.30
2023-03-31T09:43:32.602Z,1.05
2023-03-31T09:46:09.580Z,1.73
2023-03-31T09:48:53.780Z,1.40
2023-03-31T09:51:29.845Z,1.60
2023-03-31T09:54:08.698Z,1.77
2023-03-31T09:56:48.787Z,1.50
2023-03-31T09:59:18.940Z,1.30
2023-03-31T10:01:49.180Z,1.40
2023-03-31T10:04:24.908Z,1.70
2023-03-31T10:06:55.392Z,1.90
2023-03-31T10:09:28.015Z,2.20
2023-03-31T10:11:58.947Z,2.20
2023-03-31T10:14:34.220Z,1.40
2023-03-31T10:17:06.688Z,1.80
2023-03-31T10:19:38.614Z,1.77
2023-03-31T10:22:16.047Z,1.60
2023-03-31T10:24:45.988Z,1.75
2023-03-31T10:27:21.948Z,1.90
2023-03-31T10:29:53.823Z,1.75
2023-03-31T10:32:28.800Z,2.00
2023-03-31T10:35:01.834Z,1.90
2023-03-31T10:37:31.898Z,1.90
2023-03-31T10:40:04.598Z,1.77
2023-03-31T10:42:33.507Z,1.77
2023-03-31T10:45:36.632Z,1.40
2023-03-31T10:48:17.873Z,1.77
2023-03-31T10:50:49.110Z,1.75
2023-03-31T10:53:18.918Z,1.90
2023-03-31T10:55:57.455Z,2.10
2023-03-31T10:58:39.467Z,1.80
2023-03-31T11:01:19.927Z,2.20
2023-03-31T11:04:11.332Z,1.63
2023-03-31T11:06:53.160Z,1.80
2023-03-31T11:09:36.840Z,0.82
2023-03-31T11:12:13.342Z,1.10
2023-03-31T11:14:52.529Z,1.10
2023-03-31T11:17:34.090Z,1.17
2023-03-31T11:20:14.094Z,1.23
2023-03-31T11:22:53.706Z,1.05
2023-03-31T11:25:31.926Z,1.23
2023-03-31T11:28:35.977Z,1.30
2023-03-31T11:31:18.695Z,1.08
2023-03-31T11:34:00.512Z,1.30
2023-03-31T11:36:49.430Z,1.33
2023-03-31T11:39:35.780Z,1.55
2023-03-31T11:42:09.769Z,1.13
2023-03-31T11:44:43.614Z,1.10
2023-03-31T11:47:18.296Z,1.40
2023-03-31T11:52:21.920Z,1.40
2023-03-31T11:54:56.298Z,1.35
2023-03-31T11:57:30.391Z,1.30
2023-03-31T12:00:06.530Z,1.10
2023-03-31T12:02:45.840Z,1.05
2023-03-31T12:05:17.095Z,1.20
2023-03-31T12:07:51.387Z,1.27
2023-03-31T12:10:23.513Z,1.30
2023-03-31T12:12:58.666Z,1.33
2023-03-31T12:15:35.013Z,1.10
2023-03-31T12:18:11.352Z,1.88
2023-03-31T12:20:43.829Z,1.33
2023-03-31T12:23:16.304Z,1.20
2023-03-31T12:25:52.594Z,1.48
2023-03-31T12:28:21.977Z,1.50
2023-03-31T12:30:53.719Z,1.40
2023-03-31T12:33:27.946Z,1.60
2023-03-31T12:36:13.700Z,1.70
2023-03-31T12:39:02.873Z,1.40
2023-03-31T12:41:40.904Z,1.58
2023-03-31T12:44:31.258Z,1.77
2023-03-31T12:47:21.378Z,1.50
2023-03-31T12:49:59.905Z,1.60
2023-03-31T12:52:37.453Z,1.65
2023-03-31T12:55:25.096Z,1.40
2023-03-31T12:57:54.925Z,1.40
2023-03-31T13:00:27.630Z,1.60
2023-03-31T13:03:34.008Z,1.40
2023-03-31T13:06:03.246Z,1.40
2023-03-31T13:08:52.682Z,1.40
2023-03-31T13:11:22.329Z,1.80
2023-03-31T13:14:01.815Z,1.60
2023-03-31T13:16:31.010Z,1.33
2023-03-31T13:18:59.963Z,1.48
2023-03-31T13:21:28.916Z,1.42
2023-03-31T13:24:03.058Z,1.20
2023-03-31T13:26:42.744Z,1.50
2023-03-31T13:29:24.411Z,1.25
2023-03-31T13:32:22.017Z,1.60
2023-03-31T13:35:03.677Z,1.20
2023-03-31T13:37:46.558Z,1.30
2023-03-31T13:40:39.562Z,1.25
2023-03-31T13:43:32.293Z,1.20
2023-03-31T13:46:23.478Z,1.35
2023-03-31T13:49:01.987Z,1.38
2023-03-31T13:51:38.950Z,1.30
2023-03-31T13:54:54.690Z,1.20
2023-03-31T13:57:40.518Z,1.35
2023-03-31T14:00:36.361Z,1.25
2023-03-31T14:03:22.928Z,1.45
2023-03-31T14:05:56.420Z,1.40
2023-03-31T14:08:39.326Z,1.30
2023-03-31T14:11:18.361Z,1.17
2023-03-31T14:14:00.223Z,1.15
2023-03-31T14:16:30.863Z,1.20
2023-03-31T14:22:00.260Z,1.25
2023-03-31T14:24:32.447Z,1.13
2023-03-31T14:27:08.604Z,1.10
2023-03-31T14:29:44.973Z,1.10
2023-03-31T14:32:26.692Z,1.00
2023-03-31T14:35:15.232Z,0.93
2023-03-31T14:37:43.681Z,1.20
2023-03-31T14:40:16.186Z,1.05
2023-03-31T14:42:49.692Z,1.00
2023-03-31T14:45:20.725Z,1.00
2023-03-31T14:47:57.365Z,1.10
2023-03-31T14:50:32.610Z,1.02
2023-03-31T14:53:01.411Z,0.90
2023-03-31T14:55:49.363Z,1.20
2023-03-31T14:58:26.799Z,1.10
2023-03-31T15:00:55.944Z,1.08
2023-03-31T15:03:27.411Z,1.25
2023-03-31T15:06:00.527Z,1.20
2023-03-31T15:08:30.515Z,1.05
2023-03-31T15:11:11.900Z,1.10
2023-03-31T15:13:56.506Z,1.40
2023-03-31T15:16:38.023Z,1.30
2023-03-31T15:19:13.378Z,1.48
2023-03-31T15:21:43.828Z,1.20
2023-03-31T15:24:13.244Z,1.13
2023-03-31T15:26:47.659Z,1.30
2023-03-31T15:29:20.895Z,1.35
2023-03-31T15:31:50.003Z,1.10
2023-03-31T15:34:27.684Z,1.33
2023-03-31T15:36:58.648Z,1.30
2023-03-31T15:39:29.847Z,1.30
2023-03-31T15:41:59.672Z,1.40
2023-03-31T15:44:46.481Z,1.40
2023-03-31T15:47:18.707Z,1.45
2023-03-31T15:49:53.095Z,1.00
2023-03-31T15:52:30.163Z,1.60
2023-03-31T15:54:58.629Z,1.25
2023-03-31T15:57:33.484Z,1.00
2023-03-31T16:00:04.918Z,0.90
2023-03-31T16:02:46.459Z,0.90
2023-03-31T16:05:37.284Z,1.10
2023-03-31T16:08:15.248Z,1.02
2023-03-31T16:10:43.957Z,0.90
2023-03-31T16:13:22.965Z,1.00
2023-03-31T16:15:54.435Z,1.13
2023-03-31T16:18:29.766Z,0.90
2023-03-31T16:21:04.148Z,1.15
2023-03-31T16:23:38.669Z,1.20
2023-03-31T16:26:07.960Z,1.20
2023-03-31T16:28:38.457Z,1.30
2023-03-31T16:31:07.015Z,1.10
2023-03-31T16:33:54.138Z,1.40
2023-03-31T16:36:22.849Z,1.20
2023-03-31T16:38:54.482Z,1.08
2023-03-31T16:41:24.283Z,1.00
2023-03-31T16:43:54.228Z,1.25
2023-03-31T16:46:23.421Z,1.20
2023-03-31T16:48:52.144Z,1.05
2023-03-31T16:51:21.207Z,1.10
2023-03-31T16:53:49.679Z,1.00
2023-03-31T16:56:20.245Z,1.35
2023-03-31T16:58:49.104Z,1.15
2023-03-31T17:01:17.631Z,1.23
2023-03-31T17:03:48.401Z,0.90
2023-03-31T17:06:17.050Z,1.05
2023-03-31T17:08:45.737Z,1.08
2023-03-31T17:11:16.023Z,0.90
2023-03-31T17:13:46.663Z,0.90
2023-03-31T17:16:24.325Z,0.93
2023-03-31T17:19:01.156Z,0.90
2023-03-31T17:21:29.705Z,1.00
2023-03-31T17:23:59.677Z,0.82
2023-03-31T17:26:29.273Z,0.90
2023-03-31T17:29:00.625Z,1.20
2023-03-31T17:31:30.519Z,1.00
2023-03-31T17:33:59.624Z,0.70
2023-03-31T17:36:28.975Z,0.93
2023-03-31T17:39:00.056Z,1.00
2023-03-31T17:41:29.862Z,1.00
2023-03-31T17:43:59.734Z,0.95
2023-03-31T17:46:28.354Z,0.90
2023-03-31T17:48:58.395Z,1.08
2023-03-31T17:51:27.791Z,0.95
2023-03-31T17:53:56.396Z,1.23
2023-03-31T17:56:26.449Z,1.10
2023-03-31T17:58:56.067Z,1.42
2023-03-31T18:01:26.315Z,1.50
2023-03-31T18:03:56.119Z,1.75
2023-03-31T18:06:24.944Z,1.30
2023-03-31T18:08:53.411Z,1.40
2023-03-31T18:11:22.053Z,1.40
2023-03-31T18:13:51.163Z,1.45
2023-03-31T18:16:19.914Z,1.20
2023-03-31T18:18:49.877Z,1.30
2023-03-31T18:21:18.311Z,1.30
2023-03-31T18:23:48.216Z,1.00
2023-03-31T18:26:16.719Z,1.10
2023-03-31T18:28:45.142Z,1.13
2023-03-31T18:31:14.301Z,1.05
2023-03-31T18:33:43.302Z,1.50
2023-03-31T18:36:18.173Z,1.40
2023-03-31T18:38:47.006Z,1.00
2023-03-31T18:41:17.588Z,1.05
2023-03-31T18:43:47.543Z,2.80
2023-03-31T18:46:16.015Z,3.00
2023-03-31T18:48:44.784Z,2.05
2023-03-31T18:51:15.440Z,1.80
2023-03-31T18:53:43.977Z,1.70
2023-03-31T18:56:12.517Z,1.90
2023-03-31T18:58:41.015Z,1.80
2023-03-31T19:01:09.608Z,1.83
2023-03-31T19:03:38.204Z,2.60
2023-03-31T19:06:10.076Z,2.47
2023-03-31T19:08:40.528Z,1.80
2023-03-31T19:11:11.633Z,1.90
2023-03-31T19:13:42.008Z,1.23
2023-03-31T19:16:11.049Z,1.50
2023-03-31T19:18:39.600Z,1.55
2023-03-31T19:21:08.113Z,1.45
2023-03-31T19:23:36.465Z,1.10
2023-03-31T19:26:07.066Z,1.08
2023-03-31T19:28:35.619Z,1.30
2023-03-31T19:31:05.786Z,1.10
2023-03-31T19:33:34.598Z,1.25
2023-03-31T19:36:03.198Z,1.20
2023-03-31T19:38:32.637Z,1.40
2023-03-31T19:41:01.058Z,1.20
2023-03-31T19:43:31.172Z,1.30
2023-03-31T19:46:00.905Z,1.52
2023-03-31T19:48:33.544Z,1.27
2023-03-31T19:51:04.167Z,0.95
2023-03-31T19:53:33.207Z,1.33
2023-03-31T19:56:03.432Z,1.50
2023-03-31T19:58:35.845Z,1.40
2023-03-31T20:01:06.453Z,1.10
2023-03-31T20:03:35.410Z,1.40
2023-03-31T20:06:07.236Z,1.30
2023-03-31T20:08:36.446Z,1.35
2023-03-31T20:11:07.275Z,1.27
2023-03-31T20:13:37.317Z,1.60
2023-03-31T20:16:07.759Z,1.88
2023-03-31T20:18:39.102Z,1.70
2023-03-31T20:21:10.409Z,1.40
2023-03-31T20:23:39.743Z,2.17
2023-03-31T20:26:10.138Z,1.73
2023-03-31T20:28:40.213Z,1.70
2023-03-31T20:31:08.756Z,1.23
2023-03-31T20:33:37.506Z,1.52
2023-03-31T20:36:07.859Z,1.52
2023-03-31T20:38:38.373Z,1.50
2023-03-31T20:41:07.151Z,1.50
2023-03-31T20:43:36.015Z,1.33
2023-03-31T20:46:08.573Z,1.30
2023-03-31T20:48:38.554Z,1.48
2023-03-31T20:51:08.919Z,1.70
2023-03-31T20:53:42.112Z,1.50
2023-03-31T20:56:11.454Z,1.42
2023-03-31T20:58:42.457Z,1.20
2023-03-31T21:01:14.720Z,1.42
2023-03-31T21:03:43.751Z,1.27
2023-03-31T21:06:14.165Z,1.30
2023-03-31T21:08:45.440Z,1.20
2023-03-31T21:11:14.023Z,1.15
2023-03-31T21:13:44.430Z,1.20
2023-03-31T21:16:14.374Z,1.10
2023-03-31T21:18:43.027Z,1.35
2023-03-31T21:21:13.417Z,1.23
2023-03-31T21:23:42.158Z,1.23
2023-03-31T21:26:14.729Z,1.40
2023-03-31T21:28:43.960Z,1.38
2023-03-31T21:31:15.687Z,1.55
2023-03-31T21:33:46.043Z,1.55
2023-03-31T21:36:16.461Z,1.35
2023-03-31T21:38:46.136Z,1.15
2023-03-31T21:41:16.487Z,1.27
2023-03-31T21:43:45.425Z,1.67
2023-03-31T21:46:17.505Z,1.33
2023-03-31T21:48:46.710Z,1.10
2023-03-31T21:51:15.273Z,1.20
2023-03-31T21:53:47.294Z,1.58
2023-03-31T21:56:15.761Z,1.40
2023-03-31T21:58:44.292Z,1.50
2023-03-31T22:01:15.533Z,2.17
2023-03-31T22:03:43.971Z,1.90
2023-03-31T22:06:12.563Z,2.15
2023-03-31T22:08:41.383Z,1.50
2023-03-31T22:11:11.812Z,1.77
2023-03-31T22:13:40.776Z,1.52
2023-03-31T22:16:17.600Z,1.80
2023-03-31T22:18:47.010Z,2.40
2023-03-31T22:21:21.574Z,1.50
2023-03-31T22:26:19.900Z,1.65
2023-03-31T22:28:48.952Z,1.75
2023-03-31T22:31:18.992Z,1.83
2023-03-31T22:33:48.077Z,1.52
2023-03-31T22:36:17.076Z,1.50
2023-03-31T22:38:45.544Z,1.55
2023-03-31T22:41:14.009Z,1.67
2023-03-31T22:43:45.377Z,1.60
2023-03-31T22:46:15.158Z,2.03
2023-03-31T22:48:48.629Z,2.40
2023-03-31T22:51:17.361Z,2.22
2023-03-31T22:53:51.023Z,2.03
2023-03-31T22:56:20.248Z,2.10
2023-03-31T22:58:48.774Z,1.70
2023-03-31T23:01:19.886Z,1.98
2023-03-31T23:03:49.887Z,2.30
2023-03-31T23:06:18.867Z,1.88
2023-03-31T23:08:48.954Z,1.60
2023-03-31T23:11:18.741Z,1.88
2023-03-31T23:13:48.319Z,1.20
2023-03-31T23:16:18.822Z,1.50
2023-03-31T23:18:49.979Z,1.27
2023-03-31T23:21:21.630Z,1.52
2023-03-31T23:23:53.616Z,1.58
2023-03-31T23:26:23.363Z,1.30
2023-03-31T23:28:53.025Z,2.03
2023-03-31T23:31:23.691Z,1.75
2023-03-31T23:33:53.613Z,1.83
2023-03-31T23:36:22.525Z,1.30
2023-03-31T23:38:53.497Z,1.80
2023-03-31T23:41:24.094Z,1.30
2023-03-31T23:43:55.904Z,1.85
2023-03-31T23:46:26.020Z,1.45
2023-03-31T23:48:56.326Z,1.80
2023-03-31T23:51:24.937Z,1.40
2023-03-31T23:53:53.480Z,1.60
2023-03-31T23:56:22.326Z,1.20
2023-03-31T23:58:50.920Z,1.10
